Laupqren — LMQP — position and weather

sailwx.info

Track history (hours):
 
Tides and Currents Weather Stations Pressure Air Temp Water Temp Dewpoint Dewpoint Depression Visibility Wind Speed Wind Dir Waves Ship Positions

Laupqren

Last reported at 2018-Jan-03 13:00 UTC. Time now 2018-Feb-23 10:52 UTC.
Position N 17°07' W 061°51'.
Warning: this ship's position is 50 days out of date.

Length 32 m.

Type: Passenger vessel. MMSI: 257285700.

Date/timePositionNaut miles runAvg speedWind from/ knotsBaromVisibWave heightAir tempDewpointWater temp
2018-Jan-03 13:00N 17°07' W 061°51'0 0.1
2018-Jan-03 12:56N 17°07' W 061°51'0 0.0
2018-Jan-03 12:30N 17°07' W 061°51'0 0.0
2018-Jan-03 12:00N 17°07' W 061°51'4 8.4
2018-Jan-03 11:31N 17°07' W 061°55'1122.7
2018-Jan-03 11:01N 16°59' W 062°04'1122.6
2018-Jan-03 10:31N 16°51' W 062°12'3 4.6
2018-Jan-03 09:57N 16°48' W 062°12'0 0.0
2018-Jan-03 09:30N 16°48' W 062°12'0 0.0
2018-Jan-03 08:56N 16°48' W 062°12'0 0.0
2018-Jan-03 08:30N 16°48' W 062°12'0 0.0
2018-Jan-03 08:00N 16°48' W 062°12'0 0.0
2018-Jan-03 07:21N 16°48' W 062°12'0 0.0
2018-Jan-03 07:00N 16°48' W 062°12'0 0.0
2018-Jan-03 06:29N 16°48' W 062°12'0 0.0
2018-Jan-03 05:53N 16°48' W 062°12'0 0.0
2018-Jan-03 05:30N 16°48' W 062°12'0 0.0
2018-Jan-03 04:54N 16°48' W 062°12'0 0.0
2018-Jan-03 04:28N 16°48' W 062°12'0 0.0
2018-Jan-03 03:55N 16°48' W 062°12'0 0.0
2018-Jan-03 03:30N 16°48' W 062°12'0 0.0
2018-Jan-03 03:00N 16°48' W 062°12'0 0.0
2018-Jan-03 02:26N 16°48' W 062°12'0 0.0
2018-Jan-03 01:59N 16°48' W 062°12'0 0.0
2018-Jan-03 01:28N 16°48' W 062°12'0 0.0
2018-Jan-03 01:00N 16°48' W 062°12'917.8
2018-Jan-03 00:30N 16°55' W 062°07'1122.7
2018-Jan-03 00:01N 17°04' W 061°59'917.1
2018-Jan-02 23:30N 17°07' W 061°51'0 0.1
2018-Jan-02 23:00N 17°07' W 061°51'0 0.0
2018-Jan-02 22:30N 17°07' W 061°51'4 8.0
2018-Jan-02 22:01N 17°07' W 061°55'1122.7
2018-Jan-02 21:30N 16°60' W 062°04'1122.2
2018-Jan-02 21:01N 16°51' W 062°12'3 6.2
2018-Jan-02 20:29N 16°48' W 062°12'0 0.0
2018-Jan-02 20:00N 16°48' W 062°12'0 0.0
2018-Jan-02 19:27N 16°48' W 062°12'0 0.0
2018-Jan-02 18:54N 16°48' W 062°12'0 0.0
2018-Jan-02 18:28N 16°48' W 062°12'0 0.0
2018-Jan-02 18:00N 16°48' W 062°12'0 0.0
2018-Jan-02 17:01N 16°48' W 062°12'0 0.0
2018-Jan-02 17:00N 16°48' W 062°12'0 0.0
2018-Jan-02 16:30N 16°48' W 062°12'0 0.0
2018-Jan-02 15:57N 16°48' W 062°12'0 0.0
2018-Jan-02 15:24N 16°48' W 062°12'0 0.0
2018-Jan-02 14:58N 16°48' W 062°12'4 9.4
2018-Jan-02 14:31N 16°52' W 062°11'1224.0
2018-Jan-02 14:00N 17°01' W 062°02'1122.7
2018-Jan-02 13:30N 17°08' W 061°52'2 3.0
2018-Jan-02 13:00N 17°07' W 061°51'0 0.0
2018-Jan-02 12:30N 17°07' W 061°51'0 0.0
2018-Jan-02 12:00N 17°07' W 061°51'611.4
2018-Jan-02 11:31N 17°06' W 061°57'1223.3
2018-Jan-02 11:01N 16°58' W 062°06'1122.7
2018-Jan-02 10:31N 16°49' W 062°13'1 2.3
2018-Jan-02 10:00N 16°48' W 062°13'0 0.0
2018-Jan-02 09:31N 16°48' W 062°13'0 0.0
2018-Jan-02 08:30N 16°48' W 062°13'0 0.0
2018-Jan-02 08:00N 16°48' W 062°13'0 0.0
2018-Jan-02 07:30N 16°48' W 062°13'0 0.0
2018-Jan-02 07:00N 16°48' W 062°13'0 0.0
2018-Jan-02 06:30N 16°48' W 062°13'0 0.0
2018-Jan-02 06:01N 16°48' W 062°13'0 0.0
2018-Jan-02 05:30N 16°48' W 062°13'0 0.0
2018-Jan-02 04:30N 16°48' W 062°13'0 0.0
2018-Jan-02 04:00N 16°48' W 062°13'0 0.0
2018-Jan-02 03:30N 16°48' W 062°13'0 0.0
2018-Jan-02 03:00N 16°48' W 062°13'0 0.0
2018-Jan-02 02:30N 16°48' W 062°13'0 0.0
2018-Jan-02 02:00N 16°48' W 062°13'0 0.0
2018-Jan-02 01:30N 16°48' W 062°13'0 0.0
2018-Jan-02 01:00N 16°48' W 062°13'0 0.0
2018-Jan-02 00:30N 16°48' W 062°13'0 0.0
2018-Jan-02 00:00N 16°48' W 062°13'0 0.0
2018-Jan-01 01:07N 16°48' W 062°13'1 1.0
2018-Jan-01 00:31N 16°49' W 062°13'28 8.0
2017-Dec-31 21:00N 17°07' W 061°51'0 0.0
2017-Dec-31 20:30N 17°07' W 061°51'0 0.0
2017-Dec-31 20:00N 17°07' W 061°51'0 0.0
2017-Dec-31 19:30N 17°07' W 061°51'0 0.0
2017-Dec-31 19:00N 17°07' W 061°51'0 0.0
2017-Dec-31 18:30N 17°07' W 061°51'0 0.0
2017-Dec-31 18:00N 17°07' W 061°51'0 0.0
2017-Dec-31 17:30N 17°07' W 061°51'0 0.0
2017-Dec-31 17:00N 17°07' W 061°51'0 0.0
2017-Dec-31 16:30N 17°07' W 061°51'0 0.0
2017-Dec-31 16:00N 17°07' W 061°51'0 0.0
2017-Dec-31 15:30N 17°07' W 061°51'0 0.0
2017-Dec-31 15:00N 17°07' W 061°51'0 0.0
2017-Dec-31 14:30N 17°07' W 061°51'0 0.0
2017-Dec-31 14:00N 17°07' W 061°51'0 0.0
2017-Dec-31 13:30N 17°07' W 061°51'0 0.0
2017-Dec-31 13:00N 17°07' W 061°51'0 0.0
2017-Dec-31 12:30N 17°07' W 061°51'4 8.7
2017-Dec-31 12:01N 17°07' W 061°55'1121.4
2017-Dec-31 11:30N 16°60' W 062°04'1020.4
2017-Dec-31 11:00N 16°53' W 062°12'5 8.8
2017-Dec-31 10:28N 16°48' W 062°12'0 0.0
2017-Dec-31 10:00N 16°48' W 062°12'0 0.0
2017-Dec-31 09:30N 16°48' W 062°12'0 0.0
2017-Dec-31 09:00N 16°48' W 062°12'0 0.0
2017-Dec-31 08:30N 16°48' W 062°12'0 0.0
2017-Dec-31 08:00N 16°48' W 062°12'0 0.0
2017-Dec-31 07:30N 16°48' W 062°12'0 0.0
2017-Dec-31 07:00N 16°48' W 062°12'0 0.0
2017-Dec-31 06:30N 16°48' W 062°12'0 0.0
2017-Dec-31 05:59N 16°48' W 062°12'0 0.0
2017-Dec-31 05:30N 16°48' W 062°12'0 0.0
2017-Dec-31 05:00N 16°48' W 062°12'0 0.0
2017-Dec-31 04:30N 16°48' W 062°12'0 0.0
2017-Dec-31 03:59N 16°48' W 062°12'0 0.0
2017-Dec-31 03:30N 16°48' W 062°12'0 0.0
2017-Dec-31 03:00N 16°48' W 062°12'0 0.0
2017-Dec-31 02:29N 16°48' W 062°12'0 0.0
2017-Dec-31 02:00N 16°48' W 062°12'0 0.0
2017-Dec-31 01:28N 16°48' W 062°12'0 0.4
2017-Dec-31 01:01N 16°48' W 062°13'1020.2
2017-Dec-31 00:30N 16°56' W 062°06'1121.8
2017-Dec-31 00:01N 17°04' W 061°58'815.4
2017-Dec-30 23:30N 17°07' W 061°51'0 0.0
2017-Dec-30 23:00N 17°07' W 061°51'0 0.0
2017-Dec-30 22:30N 17°07' W 061°51'1 2.9
2017-Dec-30 22:01N 17°08' W 061°52'1121.5
2017-Dec-30 21:31N 17°01' W 062°01'1122.9
2017-Dec-30 21:01N 16°53' W 062°10'611.3
2017-Dec-30 20:30N 16°48' W 062°12'0 0.0
2017-Dec-30 19:48N 16°48' W 062°12'0 0.0
2017-Dec-30 19:30N 16°48' W 062°12'0 0.0
2017-Dec-30 18:53N 16°48' W 062°12'0 0.0
2017-Dec-30 18:17N 16°48' W 062°12'0 0.0
2017-Dec-30 17:53N 16°48' W 062°12'0 0.0
2017-Dec-30 17:30N 16°48' W 062°12'0 0.0
2017-Dec-30 17:00N 16°48' W 062°12'0 0.0
2017-Dec-30 16:29N 16°48' W 062°12'0 0.0
2017-Dec-30 15:53N 16°48' W 062°12'0 0.0
2017-Dec-30 15:26N 16°48' W 062°12'0 0.0
2017-Dec-30 15:00N 16°48' W 062°12'510.2
2017-Dec-30 14:31N 16°53' W 062°11'1122.1
2017-Dec-30 14:01N 17°01' W 062°02'1122.4
2017-Dec-30 13:31N 17°08' W 061°54'3 5.4
2017-Dec-30 13:00N 17°07' W 061°51'0 0.0
2017-Dec-30 12:30N 17°07' W 061°51'2 4.2
2017-Dec-30 12:01N 17°08' W 061°53'1121.7
2017-Dec-30 11:30N 17°01' W 062°02'1121.4
2017-Dec-30 11:00N 16°54' W 062°10'612.0
2017-Dec-30 10:29N 16°48' W 062°12'0 0.0
2017-Dec-30 09:59N 16°48' W 062°12'0 0.0
2017-Dec-30 09:29N 16°48' W 062°12'0 0.0
2017-Dec-30 08:56N 16°48' W 062°12'0 0.0
2017-Dec-30 08:23N 16°48' W 062°12'0 0.0
2017-Dec-30 07:59N 16°48' W 062°12'0 0.0
2017-Dec-30 07:28N 16°48' W 062°12'0 0.0
2017-Dec-30 07:00N 16°48' W 062°12'0 0.0
2017-Dec-30 06:30N 16°48' W 062°12'0 0.0
2017-Dec-30 05:59N 16°48' W 062°12'0 0.0
2017-Dec-30 05:27N 16°48' W 062°12'0 0.0
2017-Dec-30 04:59N 16°48' W 062°12'0 0.0
2017-Dec-30 04:28N 16°48' W 062°12'0 0.0
2017-Dec-30 03:59N 16°48' W 062°12'0 0.0
2017-Dec-30 03:27N 16°48' W 062°12'0 0.0
2017-Dec-30 02:54N 16°48' W 062°12'0 0.0
2017-Dec-30 02:25N 16°48' W 062°12'0 0.0
2017-Dec-30 01:58N 16°48' W 062°12'0 0.0
2017-Dec-30 01:29N 16°48' W 062°12'0 0.0
2017-Dec-30 00:57N 16°48' W 062°12'4 8.1
2017-Dec-30 00:30N 16°52' W 062°12'1020.1
2017-Dec-30 00:00N 16°59' W 062°04'1021.1
2017-Dec-29 23:31N 17°06' W 061°56'510.2
2017-Dec-29 23:00N 17°07' W 061°51'0 0.0
2017-Dec-29 22:30N 17°07' W 061°51'0 0.0
2017-Dec-29 22:00N 17°07' W 061°51'0 0.0
2017-Dec-29 21:30N 17°07' W 061°51'0 0.0
2017-Dec-29 21:00N 17°07' W 061°51'0 0.0
2017-Dec-29 20:30N 17°07' W 061°51'0 0.0
2017-Dec-29 20:00N 17°07' W 061°51'0 0.0
2017-Dec-29 19:31N 17°07' W 061°51'0 0.0
2017-Dec-29 19:00N 17°07' W 061°51'0 0.0
2017-Dec-29 18:30N 17°07' W 061°51'0 0.0
2017-Dec-29 18:00N 17°07' W 061°51'0 0.0
2017-Dec-29 17:31N 17°07' W 061°51'0 0.0
2017-Dec-29 17:00N 17°07' W 061°51'0 0.0
2017-Dec-29 16:30N 17°07' W 061°51'0 0.0
2017-Dec-29 16:00N 17°07' W 061°51'0 0.0
2017-Dec-29 15:30N 17°07' W 061°51'0 0.0
2017-Dec-29 15:00N 17°07' W 061°51'0 0.0
2017-Dec-29 14:30N 17°07' W 061°51'0 0.0
2017-Dec-29 14:00N 17°07' W 061°51'0 0.0
2017-Dec-29 13:30N 17°07' W 061°51'0 0.0
2017-Dec-29 13:00N 17°07' W 061°51'0 0.0
2017-Dec-29 12:30N 17°07' W 061°51'0 0.0
2017-Dec-29 12:00N 17°07' W 061°51'613.0
2017-Dec-29 11:31N 17°05' W 061°57'1122.4
2017-Dec-29 11:00N 16°58' W 062°06'1020.6
2017-Dec-29 10:30N 16°50' W 062°13'2 3.0
2017-Dec-29 10:00N 16°48' W 062°12'0 0.0
2017-Dec-29 09:28N 16°48' W 062°12'0 0.0
2017-Dec-29 09:00N 16°48' W 062°12'0 0.0
2017-Dec-29 08:27N 16°48' W 062°12'0 0.0
2017-Dec-29 07:57N 16°48' W 062°12'0 0.0
2017-Dec-29 07:30N 16°48' W 062°12'0 0.0
2017-Dec-29 07:00N 16°48' W 062°12'0 0.0
2017-Dec-29 06:21N 16°48' W 062°12'0 0.0
2017-Dec-29 05:57N 16°48' W 062°12'0 0.0
2017-Dec-29 05:26N 16°48' W 062°12'0 0.0
2017-Dec-29 04:59N 16°48' W 062°12'0 0.0
2017-Dec-29 04:30N 16°48' W 062°12'0 0.0
2017-Dec-29 03:59N 16°48' W 062°12'0 0.0
2017-Dec-29 03:28N 16°48' W 062°12'0 0.0
2017-Dec-29 02:58N 16°48' W 062°12'0 0.0
2017-Dec-29 02:27N 16°48' W 062°12'0 0.0
2017-Dec-29 01:08N 16°48' W 062°12'1 8.5
2017-Dec-29 01:01N 16°49' W 062°13'1019.5
2017-Dec-29 00:30N 16°57' W 062°06'1020.9
2017-Dec-29 00:00N 17°04' W 061°58'815.7
2017-Dec-28 23:30N 17°07' W 061°51'0 0.1
2017-Dec-28 23:00N 17°07' W 061°51'0 0.0
2017-Dec-28 22:30N 17°07' W 061°51'510.6
2017-Dec-28 22:00N 17°06' W 061°56'1121.6
2017-Dec-28 21:30N 16°59' W 062°05'1020.2
2017-Dec-28 21:00N 16°52' W 062°12'4 7.3
2017-Dec-28 20:30N 16°48' W 062°12'0 0.0
2017-Dec-28 19:59N 16°48' W 062°12'0 0.0
2017-Dec-28 19:30N 16°48' W 062°12'0 0.0
2017-Dec-28 18:57N 16°48' W 062°12'0 0.0
2017-Dec-28 18:30N 16°48' W 062°12'0 0.0
2017-Dec-28 18:00N 16°48' W 062°12'0 0.0
2017-Dec-28 17:30N 16°48' W 062°12'0 0.0
2017-Dec-28 16:58N 16°48' W 062°12'0 0.0
2017-Dec-28 16:30N 16°48' W 062°12'27 9.1
2017-Dec-28 13:31N 17°08' W 061°52'017.1
2017-Dec-28 13:30N 17°08' W 061°52'2 0.1
2017-Dec-27 19:29N 17°07' W 061°51'0 0.0
2017-Dec-27 19:01N 17°07' W 061°51'0 0.0
2017-Dec-27 18:31N 17°07' W 061°51'0 0.0
2017-Dec-27 18:01N 17°07' W 061°51'0 0.0
2017-Dec-27 17:31N 17°07' W 061°51'0 0.0
2017-Dec-27 17:01N 17°07' W 061°51'0 0.0
2017-Dec-27 16:31N 17°07' W 061°51'0 0.0
2017-Dec-27 16:01N 17°07' W 061°51'0 0.0
2017-Dec-27 15:31N 17°07' W 061°51'0 0.0
2017-Dec-27 15:00N 17°07' W 061°51'0 0.0
2017-Dec-27 14:30N 17°07' W 061°51'0 0.0
2017-Dec-27 14:01N 17°07' W 061°51'0 0.0
2017-Dec-27 13:31N 17°07' W 061°51'0 0.0
2017-Dec-27 13:01N 17°07' W 061°51'0 0.1
2017-Dec-27 12:31N 17°07' W 061°51'815.2
2017-Dec-27 12:00N 17°04' W 061°58'1021.2
2017-Dec-27 11:30N 16°58' W 062°07'918.9
2017-Dec-27 11:00N 16°50' W 062°13'2 0.3
2017-Dec-27 05:13N 16°48' W 062°12'0 0.0
2017-Dec-27 04:59N 16°48' W 062°12'0 0.0
2017-Dec-27 01:34N 16°48' W 062°12'0 0.0
2017-Dec-27 01:26N 16°48' W 062°12'0 0.2
2017-Dec-27 00:57N 16°48' W 062°12'817.9
2017-Dec-27 00:30N 16°55' W 062°08'1221.3
2017-Dec-26 23:57N 17°03' W 061°59'819.0
2017-Dec-26 23:30N 17°07' W 061°51'0 1.0
2017-Dec-26 23:00N 17°07' W 061°51'0 0.0
2017-Dec-26 22:30N 17°07' W 061°51'3 6.8
2017-Dec-26 22:01N 17°07' W 061°54'1121.8
2017-Dec-26 21:31N 17°00' W 062°03'1019.8
2017-Dec-26 21:00N 16°54' W 062°11'611.3
2017-Dec-26 20:30N 16°48' W 062°12'0 0.0
2017-Dec-26 19:53N 16°48' W 062°12'0 0.0
2017-Dec-26 19:29N 16°48' W 062°12'0 0.0
2017-Dec-26 19:00N 16°48' W 062°12'0 0.0
2017-Dec-26 18:07N 16°48' W 062°12'0 0.0
2017-Dec-26 18:00N 16°48' W 062°12'0 0.0
2017-Dec-26 17:29N 16°48' W 062°12'0 0.0
2017-Dec-26 16:47N 16°48' W 062°12'0 0.0
2017-Dec-26 16:29N 16°48' W 062°12'0 0.0
2017-Dec-26 15:56N 16°48' W 062°12'0 0.0
2017-Dec-26 15:30N 16°48' W 062°12'2 3.9
2017-Dec-26 15:01N 16°50' W 062°13'1020.2
2017-Dec-26 14:30N 16°57' W 062°05'1122.1
2017-Dec-26 14:01N 17°05' W 061°57'612.6
2017-Dec-26 13:30N 17°07' W 061°51'0 0.0
2017-Dec-26 13:00N 17°07' W 061°51'0 0.0
2017-Dec-26 12:30N 17°07' W 061°51'0 0.0
2017-Dec-26 12:00N 17°07' W 061°51'4 8.8
2017-Dec-26 11:31N 17°07' W 061°55'1122.2
2017-Dec-26 11:00N 16°59' W 062°04'1020.7
2017-Dec-26 10:30N 16°52' W 062°12'4 5.5
2017-Dec-26 09:49N 16°48' W 062°12'0 0.0
2017-Dec-26 09:30N 16°48' W 062°12'0 0.0
2017-Dec-26 09:00N 16°48' W 062°12'0 0.0
2017-Dec-26 08:28N 16°48' W 062°12'0 0.0
2017-Dec-26 07:54N 16°48' W 062°12'0 0.0
2017-Dec-26 07:30N 16°48' W 062°12'0 0.0
2017-Dec-26 07:00N 16°48' W 062°12'0 0.0
2017-Dec-26 06:25N 16°48' W 062°12'0 0.0
2017-Dec-26 05:58N 16°48' W 062°12'0 0.0
2017-Dec-26 05:29N 16°48' W 062°12'0 0.0
2017-Dec-26 03:36N 16°48' W 062°12'0 0.0
2017-Dec-26 03:30N 16°48' W 062°12'0 0.0
2017-Dec-26 02:17N 16°48' W 062°12'0 0.0
2017-Dec-26 01:54N 16°48' W 062°12'0 0.0
2017-Dec-26 01:30N 16°48' W 062°12'0 0.0
2017-Dec-26 01:00N 16°48' W 062°12'0 0.0
2017-Dec-26 00:28N 16°48' W 062°12'0 0.0
2017-Dec-25 23:58N 16°48' W 062°12'0 0.0
2017-Dec-25 23:30N 16°48' W 062°12'0 0.0
2017-Dec-25 22:35N 16°48' W 062°12'0 0.0
2017-Dec-25 22:24N 16°48' W 062°12'0 0.0
2017-Dec-25 21:57N 16°48' W 062°12'0 0.0
2017-Dec-25 21:24N 16°48' W 062°12'0 0.0
2017-Dec-25 20:53N 16°48' W 062°12'0 0.0
2017-Dec-25 20:11N 16°48' W 062°12'0 0.0
2017-Dec-25 19:50N 16°48' W 062°12'0 0.0
2017-Dec-25 19:28N 16°48' W 062°12'0 0.0
2017-Dec-25 18:49N 16°48' W 062°12'0 0.0
2017-Dec-25 18:30N 16°48' W 062°12'0 0.0
2017-Dec-25 17:31N 16°48' W 062°12'0 0.0
2017-Dec-25 17:02N 16°48' W 062°12'0 0.0
2017-Dec-25 16:36N 16°48' W 062°12'0 0.0
2017-Dec-25 16:29N 16°48' W 062°12'0 0.0
2017-Dec-25 15:55N 16°48' W 062°12'0 0.0
2017-Dec-25 15:27N 16°48' W 062°12'0 0.0
2017-Dec-25 14:58N 16°48' W 062°12'0 0.0
2017-Dec-25 14:29N 16°48' W 062°12'0 0.0
2017-Dec-25 13:58N 16°48' W 062°12'0 0.0
2017-Dec-25 13:21N 16°48' W 062°12'0 0.0
2017-Dec-25 12:19N 16°48' W 062°12'0 0.0
2017-Dec-25 12:00N 16°48' W 062°12'0 0.0
2017-Dec-25 11:30N 16°48' W 062°12'0 0.0
2017-Dec-25 10:59N 16°48' W 062°12'0 0.0
2017-Dec-25 10:30N 16°48' W 062°12'0 0.0
2017-Dec-25 10:00N 16°48' W 062°12'0 0.0
2017-Dec-25 09:28N 16°48' W 062°12'0 0.0
2017-Dec-25 09:00N 16°48' W 062°12'0 0.0
2017-Dec-25 08:30N 16°48' W 062°12'0 0.0
2017-Dec-25 08:00N 16°48' W 062°12'0 0.0
2017-Dec-25 07:29N 16°48' W 062°12'0 0.0
2017-Dec-25 06:59N 16°48' W 062°12'0 0.0
2017-Dec-25 06:30N 16°48' W 062°12'0 0.0
2017-Dec-25 06:00N 16°48' W 062°12'0 0.0
2017-Dec-25 05:30N 16°48' W 062°12'0 0.0
2017-Dec-25 04:59N 16°48' W 062°12'0 0.0
2017-Dec-25 04:30N 16°48' W 062°12'0 0.0
2017-Dec-25 03:58N 16°48' W 062°12'0 0.0
2017-Dec-25 03:30N 16°48' W 062°12'0 0.0
2017-Dec-25 03:00N 16°48' W 062°12'0 0.0
2017-Dec-25 02:28N 16°48' W 062°12'0 0.0
2017-Dec-25 02:00N 16°48' W 062°12'0 0.0
2017-Dec-25 01:30N 16°48' W 062°12'0 0.0
2017-Dec-25 01:00N 16°48' W 062°12'3 5.5
2017-Dec-25 00:31N 16°51' W 062°12'1020.9
2017-Dec-25 00:00N 16°58' W 062°04'1122.4
2017-Dec-24 23:31N 17°06' W 061°56'5 9.9
2017-Dec-24 23:00N 17°07' W 061°51'0 0.0
2017-Dec-24 22:30N 17°07' W 061°51'0 0.0
2017-Dec-24 22:00N 17°07' W 061°51'0 0.0
2017-Dec-24 21:30N 17°07' W 061°51'0 0.0
2017-Dec-24 21:00N 17°07' W 061°51'0 0.0
2017-Dec-24 20:30N 17°07' W 061°51'0 0.0
2017-Dec-24 20:00N 17°07' W 061°51'0 0.0
2017-Dec-24 19:30N 17°07' W 061°51'0 0.0
2017-Dec-24 19:01N 17°07' W 061°51'0 0.0
2017-Dec-24 18:30N 17°07' W 061°51'0 0.0
2017-Dec-24 18:01N 17°07' W 061°51'0 0.0
2017-Dec-24 17:30N 17°07' W 061°51'0 0.0
2017-Dec-24 17:01N 17°07' W 061°51'0 0.0
2017-Dec-24 16:30N 17°07' W 061°51'0 0.0
2017-Dec-24 16:00N 17°07' W 061°51'0 0.0
2017-Dec-24 15:30N 17°07' W 061°51'0 0.0
2017-Dec-24 15:00N 17°07' W 061°51'0 0.0
2017-Dec-24 14:30N 17°07' W 061°51'0 0.0
2017-Dec-24 14:00N 17°07' W 061°51'0 0.0
2017-Dec-24 13:30N 17°07' W 061°51'0 0.0
2017-Dec-24 13:00N 17°07' W 061°51'  
Track history (hours):
 
Tides and Currents Weather Stations Pressure Air Temp Water Temp Dewpoint Dewpoint Depression Visibility Wind Speed Wind Dir Waves Ship Positions

Laupqren

Last reported at 2018-Jan-03 13:00 UTC. Time now 2018-Feb-23 10:52 UTC.
Position N 17°07' W 061°51'.
Warning: this ship's position is 50 days out of date.

Length 32 m.

Type: Passenger vessel. MMSI: 257285700.

Date/timePositionNaut miles runAvg speedWind from/ knotsBaromVisibWave heightAir tempDewpointWater temp
2018-Jan-03 13:00N 17°07' W 061°51'0 0.1
2018-Jan-03 12:56N 17°07' W 061°51'0 0.0
2018-Jan-03 12:30N 17°07' W 061°51'0 0.0
2018-Jan-03 12:00N 17°07' W 061°51'4 8.4
2018-Jan-03 11:31N 17°07' W 061°55'1122.7
2018-Jan-03 11:01N 16°59' W 062°04'1122.6
2018-Jan-03 10:31N 16°51' W 062°12'3 4.6
2018-Jan-03 09:57N 16°48' W 062°12'0 0.0
2018-Jan-03 09:30N 16°48' W 062°12'0 0.0
2018-Jan-03 08:56N 16°48' W 062°12'0 0.0
2018-Jan-03 08:30N 16°48' W 062°12'0 0.0
2018-Jan-03 08:00N 16°48' W 062°12'0 0.0
2018-Jan-03 07:21N 16°48' W 062°12'0 0.0
2018-Jan-03 07:00N 16°48' W 062°12'0 0.0
2018-Jan-03 06:29N 16°48' W 062°12'0 0.0
2018-Jan-03 05:53N 16°48' W 062°12'0 0.0
2018-Jan-03 05:30N 16°48' W 062°12'0 0.0
2018-Jan-03 04:54N 16°48' W 062°12'0 0.0
2018-Jan-03 04:28N 16°48' W 062°12'0 0.0
2018-Jan-03 03:55N 16°48' W 062°12'0 0.0
2018-Jan-03 03:30N 16°48' W 062°12'0 0.0
2018-Jan-03 03:00N 16°48' W 062°12'0 0.0
2018-Jan-03 02:26N 16°48' W 062°12'0 0.0
2018-Jan-03 01:59N 16°48' W 062°12'0 0.0
2018-Jan-03 01:28N 16°48' W 062°12'0 0.0
2018-Jan-03 01:00N 16°48' W 062°12'917.8
2018-Jan-03 00:30N 16°55' W 062°07'1122.7
2018-Jan-03 00:01N 17°04' W 061°59'917.1
2018-Jan-02 23:30N 17°07' W 061°51'0 0.1
2018-Jan-02 23:00N 17°07' W 061°51'0 0.0
2018-Jan-02 22:30N 17°07' W 061°51'4 8.0
2018-Jan-02 22:01N 17°07' W 061°55'1122.7
2018-Jan-02 21:30N 16°60' W 062°04'1122.2
2018-Jan-02 21:01N 16°51' W 062°12'3 6.2
2018-Jan-02 20:29N 16°48' W 062°12'0 0.0
2018-Jan-02 20:00N 16°48' W 062°12'0 0.0
2018-Jan-02 19:27N 16°48' W 062°12'0 0.0
2018-Jan-02 18:54N 16°48' W 062°12'0 0.0
2018-Jan-02 18:28N 16°48' W 062°12'0 0.0
2018-Jan-02 18:00N 16°48' W 062°12'0 0.0
2018-Jan-02 17:01N 16°48' W 062°12'0 0.0
2018-Jan-02 17:00N 16°48' W 062°12'0 0.0
2018-Jan-02 16:30N 16°48' W 062°12'0 0.0
2018-Jan-02 15:57N 16°48' W 062°12'0 0.0
2018-Jan-02 15:24N 16°48' W 062°12'0 0.0
2018-Jan-02 14:58N 16°48' W 062°12'4 9.4
2018-Jan-02 14:31N 16°52' W 062°11'1224.0
2018-Jan-02 14:00N 17°01' W 062°02'1122.7
2018-Jan-02 13:30N 17°08' W 061°52'2 3.0
2018-Jan-02 13:00N 17°07' W 061°51'0 0.0
2018-Jan-02 12:30N 17°07' W 061°51'0 0.0
2018-Jan-02 12:00N 17°07' W 061°51'611.4
2018-Jan-02 11:31N 17°06' W 061°57'1223.3
2018-Jan-02 11:01N 16°58' W 062°06'1122.7
2018-Jan-02 10:31N 16°49' W 062°13'1 2.3
2018-Jan-02 10:00N 16°48' W 062°13'0 0.0
2018-Jan-02 09:31N 16°48' W 062°13'0 0.0
2018-Jan-02 08:30N 16°48' W 062°13'0 0.0
2018-Jan-02 08:00N 16°48' W 062°13'0 0.0
2018-Jan-02 07:30N 16°48' W 062°13'0 0.0
2018-Jan-02 07:00N 16°48' W 062°13'0 0.0
2018-Jan-02 06:30N 16°48' W 062°13'0 0.0
2018-Jan-02 06:01N 16°48' W 062°13'0 0.0
2018-Jan-02 05:30N 16°48' W 062°13'0 0.0
2018-Jan-02 04:30N 16°48' W 062°13'0 0.0
2018-Jan-02 04:00N 16°48' W 062°13'0 0.0
2018-Jan-02 03:30N 16°48' W 062°13'0 0.0
2018-Jan-02 03:00N 16°48' W 062°13'0 0.0
2018-Jan-02 02:30N 16°48' W 062°13'0 0.0
2018-Jan-02 02:00N 16°48' W 062°13'0 0.0
2018-Jan-02 01:30N 16°48' W 062°13'0 0.0
2018-Jan-02 01:00N 16°48' W 062°13'0 0.0
2018-Jan-02 00:30N 16°48' W 062°13'0 0.0
2018-Jan-02 00:00N 16°48' W 062°13'0 0.0
2018-Jan-01 01:07N 16°48' W 062°13'1 1.0
2018-Jan-01 00:31N 16°49' W 062°13'28 8.0
2017-Dec-31 21:00N 17°07' W 061°51'0 0.0
2017-Dec-31 20:30N 17°07' W 061°51'0 0.0
2017-Dec-31 20:00N 17°07' W 061°51'0 0.0
2017-Dec-31 19:30N 17°07' W 061°51'0 0.0
2017-Dec-31 19:00N 17°07' W 061°51'0 0.0
2017-Dec-31 18:30N 17°07' W 061°51'0 0.0
2017-Dec-31 18:00N 17°07' W 061°51'0 0.0
2017-Dec-31 17:30N 17°07' W 061°51'0 0.0
2017-Dec-31 17:00N 17°07' W 061°51'0 0.0
2017-Dec-31 16:30N 17°07' W 061°51'0 0.0
2017-Dec-31 16:00N 17°07' W 061°51'0 0.0
2017-Dec-31 15:30N 17°07' W 061°51'0 0.0
2017-Dec-31 15:00N 17°07' W 061°51'0 0.0
2017-Dec-31 14:30N 17°07' W 061°51'0 0.0
2017-Dec-31 14:00N 17°07' W 061°51'0 0.0
2017-Dec-31 13:30N 17°07' W 061°51'0 0.0
2017-Dec-31 13:00N 17°07' W 061°51'0 0.0
2017-Dec-31 12:30N 17°07' W 061°51'4 8.7
2017-Dec-31 12:01N 17°07' W 061°55'1121.4
2017-Dec-31 11:30N 16°60' W 062°04'1020.4
2017-Dec-31 11:00N 16°53' W 062°12'5 8.8
2017-Dec-31 10:28N 16°48' W 062°12'0 0.0
2017-Dec-31 10:00N 16°48' W 062°12'0 0.0
2017-Dec-31 09:30N 16°48' W 062°12'0 0.0
2017-Dec-31 09:00N 16°48' W 062°12'0 0.0
2017-Dec-31 08:30N 16°48' W 062°12'0 0.0
2017-Dec-31 08:00N 16°48' W 062°12'0 0.0
2017-Dec-31 07:30N 16°48' W 062°12'0 0.0
2017-Dec-31 07:00N 16°48' W 062°12'0 0.0
2017-Dec-31 06:30N 16°48' W 062°12'0 0.0
2017-Dec-31 05:59N 16°48' W 062°12'0 0.0
2017-Dec-31 05:30N 16°48' W 062°12'0 0.0
2017-Dec-31 05:00N 16°48' W 062°12'0 0.0
2017-Dec-31 04:30N 16°48' W 062°12'0 0.0
2017-Dec-31 03:59N 16°48' W 062°12'0 0.0
2017-Dec-31 03:30N 16°48' W 062°12'0 0.0
2017-Dec-31 03:00N 16°48' W 062°12'0 0.0
2017-Dec-31 02:29N 16°48' W 062°12'0 0.0
2017-Dec-31 02:00N 16°48' W 062°12'0 0.0
2017-Dec-31 01:28N 16°48' W 062°12'0 0.4
2017-Dec-31 01:01N 16°48' W 062°13'1020.2
2017-Dec-31 00:30N 16°56' W 062°06'1121.8
2017-Dec-31 00:01N 17°04' W 061°58'815.4
2017-Dec-30 23:30N 17°07' W 061°51'0 0.0
2017-Dec-30 23:00N 17°07' W 061°51'0 0.0
2017-Dec-30 22:30N 17°07' W 061°51'1 2.9
2017-Dec-30 22:01N 17°08' W 061°52'1121.5
2017-Dec-30 21:31N 17°01' W 062°01'1122.9
2017-Dec-30 21:01N 16°53' W 062°10'611.3
2017-Dec-30 20:30N 16°48' W 062°12'0 0.0
2017-Dec-30 19:48N 16°48' W 062°12'0 0.0
2017-Dec-30 19:30N 16°48' W 062°12'0 0.0
2017-Dec-30 18:53N 16°48' W 062°12'0 0.0
2017-Dec-30 18:17N 16°48' W 062°12'0 0.0
2017-Dec-30 17:53N 16°48' W 062°12'0 0.0
2017-Dec-30 17:30N 16°48' W 062°12'0 0.0
2017-Dec-30 17:00N 16°48' W 062°12'0 0.0
2017-Dec-30 16:29N 16°48' W 062°12'0 0.0
2017-Dec-30 15:53N 16°48' W 062°12'0 0.0
2017-Dec-30 15:26N 16°48' W 062°12'0 0.0
2017-Dec-30 15:00N 16°48' W 062°12'510.2
2017-Dec-30 14:31N 16°53' W 062°11'1122.1
2017-Dec-30 14:01N 17°01' W 062°02'1122.4
2017-Dec-30 13:31N 17°08' W 061°54'3 5.4
2017-Dec-30 13:00N 17°07' W 061°51'0 0.0
2017-Dec-30 12:30N 17°07' W 061°51'2 4.2
2017-Dec-30 12:01N 17°08' W 061°53'1121.7
2017-Dec-30 11:30N 17°01' W 062°02'1121.4
2017-Dec-30 11:00N 16°54' W 062°10'612.0
2017-Dec-30 10:29N 16°48' W 062°12'0 0.0
2017-Dec-30 09:59N 16°48' W 062°12'0 0.0
2017-Dec-30 09:29N 16°48' W 062°12'0 0.0
2017-Dec-30 08:56N 16°48' W 062°12'0 0.0
2017-Dec-30 08:23N 16°48' W 062°12'0 0.0
2017-Dec-30 07:59N 16°48' W 062°12'0 0.0
2017-Dec-30 07:28N 16°48' W 062°12'0 0.0
2017-Dec-30 07:00N 16°48' W 062°12'0 0.0
2017-Dec-30 06:30N 16°48' W 062°12'0 0.0
2017-Dec-30 05:59N 16°48' W 062°12'0 0.0
2017-Dec-30 05:27N 16°48' W 062°12'0 0.0
2017-Dec-30 04:59N 16°48' W 062°12'0 0.0
2017-Dec-30 04:28N 16°48' W 062°12'0 0.0
2017-Dec-30 03:59N 16°48' W 062°12'0 0.0
2017-Dec-30 03:27N 16°48' W 062°12'0 0.0
2017-Dec-30 02:54N 16°48' W 062°12'0 0.0
2017-Dec-30 02:25N 16°48' W 062°12'0 0.0
2017-Dec-30 01:58N 16°48' W 062°12'0 0.0
2017-Dec-30 01:29N 16°48' W 062°12'0 0.0
2017-Dec-30 00:57N 16°48' W 062°12'4 8.1
2017-Dec-30 00:30N 16°52' W 062°12'1020.1
2017-Dec-30 00:00N 16°59' W 062°04'1021.1
2017-Dec-29 23:31N 17°06' W 061°56'510.2
2017-Dec-29 23:00N 17°07' W 061°51'0 0.0
2017-Dec-29 22:30N 17°07' W 061°51'0 0.0
2017-Dec-29 22:00N 17°07' W 061°51'0 0.0
2017-Dec-29 21:30N 17°07' W 061°51'0 0.0
2017-Dec-29 21:00N 17°07' W 061°51'0 0.0
2017-Dec-29 20:30N 17°07' W 061°51'0 0.0
2017-Dec-29 20:00N 17°07' W 061°51'0 0.0
2017-Dec-29 19:31N 17°07' W 061°51'0 0.0
2017-Dec-29 19:00N 17°07' W 061°51'0 0.0
2017-Dec-29 18:30N 17°07' W 061°51'0 0.0
2017-Dec-29 18:00N 17°07' W 061°51'0 0.0
2017-Dec-29 17:31N 17°07' W 061°51'0 0.0
2017-Dec-29 17:00N 17°07' W 061°51'0 0.0
2017-Dec-29 16:30N 17°07' W 061°51'0 0.0
2017-Dec-29 16:00N 17°07' W 061°51'0 0.0
2017-Dec-29 15:30N 17°07' W 061°51'0 0.0
2017-Dec-29 15:00N 17°07' W 061°51'0 0.0
2017-Dec-29 14:30N 17°07' W 061°51'0 0.0
2017-Dec-29 14:00N 17°07' W 061°51'0 0.0
2017-Dec-29 13:30N 17°07' W 061°51'0 0.0
2017-Dec-29 13:00N 17°07' W 061°51'0 0.0
2017-Dec-29 12:30N 17°07' W 061°51'0 0.0
2017-Dec-29 12:00N 17°07' W 061°51'613.0
2017-Dec-29 11:31N 17°05' W 061°57'1122.4
2017-Dec-29 11:00N 16°58' W 062°06'1020.6
2017-Dec-29 10:30N 16°50' W 062°13'2 3.0
2017-Dec-29 10:00N 16°48' W 062°12'0 0.0
2017-Dec-29 09:28N 16°48' W 062°12'0 0.0
2017-Dec-29 09:00N 16°48' W 062°12'0 0.0
2017-Dec-29 08:27N 16°48' W 062°12'0 0.0
2017-Dec-29 07:57N 16°48' W 062°12'0 0.0
2017-Dec-29 07:30N 16°48' W 062°12'0 0.0
2017-Dec-29 07:00N 16°48' W 062°12'0 0.0
2017-Dec-29 06:21N 16°48' W 062°12'0 0.0
2017-Dec-29 05:57N 16°48' W 062°12'0 0.0
2017-Dec-29 05:26N 16°48' W 062°12'0 0.0
2017-Dec-29 04:59N 16°48' W 062°12'0 0.0
2017-Dec-29 04:30N 16°48' W 062°12'0 0.0
2017-Dec-29 03:59N 16°48' W 062°12'0 0.0
2017-Dec-29 03:28N 16°48' W 062°12'0 0.0
2017-Dec-29 02:58N 16°48' W 062°12'0 0.0
2017-Dec-29 02:27N 16°48' W 062°12'0 0.0
2017-Dec-29 01:08N 16°48' W 062°12'1 8.5
2017-Dec-29 01:01N 16°49' W 062°13'1019.5
2017-Dec-29 00:30N 16°57' W 062°06'1020.9
2017-Dec-29 00:00N 17°04' W 061°58'815.7
2017-Dec-28 23:30N 17°07' W 061°51'0 0.1
2017-Dec-28 23:00N 17°07' W 061°51'0 0.0
2017-Dec-28 22:30N 17°07' W 061°51'510.6
2017-Dec-28 22:00N 17°06' W 061°56'1121.6
2017-Dec-28 21:30N 16°59' W 062°05'1020.2
2017-Dec-28 21:00N 16°52' W 062°12'4 7.3
2017-Dec-28 20:30N 16°48' W 062°12'0 0.0
2017-Dec-28 19:59N 16°48' W 062°12'0 0.0
2017-Dec-28 19:30N 16°48' W 062°12'0 0.0
2017-Dec-28 18:57N 16°48' W 062°12'0 0.0
2017-Dec-28 18:30N 16°48' W 062°12'0 0.0
2017-Dec-28 18:00N 16°48' W 062°12'0 0.0
2017-Dec-28 17:30N 16°48' W 062°12'0 0.0
2017-Dec-28 16:58N 16°48' W 062°12'0 0.0
2017-Dec-28 16:30N 16°48' W 062°12'27 9.1
2017-Dec-28 13:31N 17°08' W 061°52'017.1
2017-Dec-28 13:30N 17°08' W 061°52'2 0.1
2017-Dec-27 19:29N 17°07' W 061°51'0 0.0
2017-Dec-27 19:01N 17°07' W 061°51'0 0.0
2017-Dec-27 18:31N 17°07' W 061°51'0 0.0
2017-Dec-27 18:01N 17°07' W 061°51'0 0.0
2017-Dec-27 17:31N 17°07' W 061°51'0 0.0
2017-Dec-27 17:01N 17°07' W 061°51'0 0.0
2017-Dec-27 16:31N 17°07' W 061°51'0 0.0
2017-Dec-27 16:01N 17°07' W 061°51'0 0.0
2017-Dec-27 15:31N 17°07' W 061°51'0 0.0
2017-Dec-27 15:00N 17°07' W 061°51'0 0.0
2017-Dec-27 14:30N 17°07' W 061°51'0 0.0
2017-Dec-27 14:01N 17°07' W 061°51'0 0.0
2017-Dec-27 13:31N 17°07' W 061°51'0 0.0
2017-Dec-27 13:01N 17°07' W 061°51'0 0.1
2017-Dec-27 12:31N 17°07' W 061°51'815.2
2017-Dec-27 12:00N 17°04' W 061°58'1021.2
2017-Dec-27 11:30N 16°58' W 062°07'918.9
2017-Dec-27 11:00N 16°50' W 062°13'2 0.3
2017-Dec-27 05:13N 16°48' W 062°12'0 0.0
2017-Dec-27 04:59N 16°48' W 062°12'0 0.0
2017-Dec-27 01:34N 16°48' W 062°12'0 0.0
2017-Dec-27 01:26N 16°48' W 062°12'0 0.2
2017-Dec-27 00:57N 16°48' W 062°12'817.9
2017-Dec-27 00:30N 16°55' W 062°08'1221.3
2017-Dec-26 23:57N 17°03' W 061°59'819.0
2017-Dec-26 23:30N 17°07' W 061°51'0 1.0
2017-Dec-26 23:00N 17°07' W 061°51'0 0.0
2017-Dec-26 22:30N 17°07' W 061°51'3 6.8
2017-Dec-26 22:01N 17°07' W 061°54'1121.8
2017-Dec-26 21:31N 17°00' W 062°03'1019.8
2017-Dec-26 21:00N 16°54' W 062°11'611.3
2017-Dec-26 20:30N 16°48' W 062°12'0 0.0
2017-Dec-26 19:53N 16°48' W 062°12'0 0.0
2017-Dec-26 19:29N 16°48' W 062°12'0 0.0
2017-Dec-26 19:00N 16°48' W 062°12'0 0.0
2017-Dec-26 18:07N 16°48' W 062°12'0 0.0
2017-Dec-26 18:00N 16°48' W 062°12'0 0.0
2017-Dec-26 17:29N 16°48' W 062°12'0 0.0
2017-Dec-26 16:47N 16°48' W 062°12'0 0.0
2017-Dec-26 16:29N 16°48' W 062°12'0 0.0
2017-Dec-26 15:56N 16°48' W 062°12'0 0.0
2017-Dec-26 15:30N 16°48' W 062°12'2 3.9
2017-Dec-26 15:01N 16°50' W 062°13'1020.2
2017-Dec-26 14:30N 16°57' W 062°05'1122.1
2017-Dec-26 14:01N 17°05' W 061°57'612.6
2017-Dec-26 13:30N 17°07' W 061°51'0 0.0
2017-Dec-26 13:00N 17°07' W 061°51'0 0.0
2017-Dec-26 12:30N 17°07' W 061°51'0 0.0
2017-Dec-26 12:00N 17°07' W 061°51'4 8.8
2017-Dec-26 11:31N 17°07' W 061°55'1122.2
2017-Dec-26 11:00N 16°59' W 062°04'1020.7
2017-Dec-26 10:30N 16°52' W 062°12'4 5.5
2017-Dec-26 09:49N 16°48' W 062°12'0 0.0
2017-Dec-26 09:30N 16°48' W 062°12'0 0.0
2017-Dec-26 09:00N 16°48' W 062°12'0 0.0
2017-Dec-26 08:28N 16°48' W 062°12'0 0.0
2017-Dec-26 07:54N 16°48' W 062°12'0 0.0
2017-Dec-26 07:30N 16°48' W 062°12'0 0.0
2017-Dec-26 07:00N 16°48' W 062°12'0 0.0
2017-Dec-26 06:25N 16°48' W 062°12'0 0.0
2017-Dec-26 05:58N 16°48' W 062°12'0 0.0
2017-Dec-26 05:29N 16°48' W 062°12'0 0.0
2017-Dec-26 03:36N 16°48' W 062°12'0 0.0
2017-Dec-26 03:30N 16°48' W 062°12'0 0.0
2017-Dec-26 02:17N 16°48' W 062°12'0 0.0
2017-Dec-26 01:54N 16°48' W 062°12'0 0.0
2017-Dec-26 01:30N 16°48' W 062°12'0 0.0
2017-Dec-26 01:00N 16°48' W 062°12'0 0.0
2017-Dec-26 00:28N 16°48' W 062°12'0 0.0
2017-Dec-25 23:58N 16°48' W 062°12'0 0.0
2017-Dec-25 23:30N 16°48' W 062°12'0 0.0
2017-Dec-25 22:35N 16°48' W 062°12'0 0.0
2017-Dec-25 22:24N 16°48' W 062°12'0 0.0
2017-Dec-25 21:57N 16°48' W 062°12'0 0.0
2017-Dec-25 21:24N 16°48' W 062°12'0 0.0
2017-Dec-25 20:53N 16°48' W 062°12'0 0.0
2017-Dec-25 20:11N 16°48' W 062°12'0 0.0
2017-Dec-25 19:50N 16°48' W 062°12'0 0.0
2017-Dec-25 19:28N 16°48' W 062°12'0 0.0
2017-Dec-25 18:49N 16°48' W 062°12'0 0.0
2017-Dec-25 18:30N 16°48' W 062°12'0 0.0
2017-Dec-25 17:31N 16°48' W 062°12'0 0.0
2017-Dec-25 17:02N 16°48' W 062°12'0 0.0
2017-Dec-25 16:36N 16°48' W 062°12'0 0.0
2017-Dec-25 16:29N 16°48' W 062°12'0 0.0
2017-Dec-25 15:55N 16°48' W 062°12'0 0.0
2017-Dec-25 15:27N 16°48' W 062°12'0 0.0
2017-Dec-25 14:58N 16°48' W 062°12'0 0.0
2017-Dec-25 14:29N 16°48' W 062°12'0 0.0
2017-Dec-25 13:58N 16°48' W 062°12'0 0.0
2017-Dec-25 13:21N 16°48' W 062°12'0 0.0
2017-Dec-25 12:19N 16°48' W 062°12'0 0.0
2017-Dec-25 12:00N 16°48' W 062°12'0 0.0
2017-Dec-25 11:30N 16°48' W 062°12'0 0.0
2017-Dec-25 10:59N 16°48' W 062°12'0 0.0
2017-Dec-25 10:30N 16°48' W 062°12'0 0.0
2017-Dec-25 10:00N 16°48' W 062°12'0 0.0
2017-Dec-25 09:28N 16°48' W 062°12'0 0.0
2017-Dec-25 09:00N 16°48' W 062°12'0 0.0
2017-Dec-25 08:30N 16°48' W 062°12'0 0.0
2017-Dec-25 08:00N 16°48' W 062°12'0 0.0
2017-Dec-25 07:29N 16°48' W 062°12'0 0.0
2017-Dec-25 06:59N 16°48' W 062°12'0 0.0
2017-Dec-25 06:30N 16°48' W 062°12'0 0.0
2017-Dec-25 06:00N 16°48' W 062°12'0 0.0
2017-Dec-25 05:30N 16°48' W 062°12'0 0.0
2017-Dec-25 04:59N 16°48' W 062°12'0 0.0
2017-Dec-25 04:30N 16°48' W 062°12'0 0.0
2017-Dec-25 03:58N 16°48' W 062°12'0 0.0
2017-Dec-25 03:30N 16°48' W 062°12'0 0.0
2017-Dec-25 03:00N 16°48' W 062°12'0 0.0
2017-Dec-25 02:28N 16°48' W 062°12'0 0.0
2017-Dec-25 02:00N 16°48' W 062°12'0 0.0
2017-Dec-25 01:30N 16°48' W 062°12'0 0.0
2017-Dec-25 01:00N 16°48' W 062°12'3 5.5
2017-Dec-25 00:31N 16°51' W 062°12'1020.9
2017-Dec-25 00:00N 16°58' W 062°04'1122.4
2017-Dec-24 23:31N 17°06' W 061°56'5 9.9
2017-Dec-24 23:00N 17°07' W 061°51'0 0.0
2017-Dec-24 22:30N 17°07' W 061°51'0 0.0
2017-Dec-24 22:00N 17°07' W 061°51'0 0.0
2017-Dec-24 21:30N 17°07' W 061°51'0 0.0
2017-Dec-24 21:00N 17°07' W 061°51'0 0.0
2017-Dec-24 20:30N 17°07' W 061°51'0 0.0
2017-Dec-24 20:00N 17°07' W 061°51'0 0.0
2017-Dec-24 19:30N 17°07' W 061°51'0 0.0
2017-Dec-24 19:01N 17°07' W 061°51'0 0.0
2017-Dec-24 18:30N 17°07' W 061°51'0 0.0
2017-Dec-24 18:01N 17°07' W 061°51'0 0.0
2017-Dec-24 17:30N 17°07' W 061°51'0 0.0
2017-Dec-24 17:01N 17°07' W 061°51'0 0.0
2017-Dec-24 16:30N 17°07' W 061°51'0 0.0
2017-Dec-24 16:00N 17°07' W 061°51'0 0.0
2017-Dec-24 15:30N 17°07' W 061°51'0 0.0
2017-Dec-24 15:00N 17°07' W 061°51'0 0.0
2017-Dec-24 14:30N 17°07' W 061°51'0 0.0
2017-Dec-24 14:00N 17°07' W 061°51'0 0.0
2017-Dec-24 13:30N 17°07' W 061°51'0 0.0
2017-Dec-24 13:00N 17°07' W 061°51'  

Dump ship's entire track history